createdAt,value
2018-09-24T05:58:56.657Z,7.5782
2018-09-24T05:59:58.701Z,6.5794
2018-09-24T06:01:04.581Z,7.3298
2018-09-24T06:02:10.012Z,6.5794
2018-09-24T06:03:15.481Z,6.3284
2018-09-24T06:04:21.006Z,5.3296
2018-09-24T06:05:26.431Z,6.5794
2018-09-24T06:06:31.361Z,5.5806
2018-09-24T06:07:36.819Z,5.829
2018-09-24T06:08:41.741Z,5.829
2018-09-24T06:09:47.671Z,4.9147
2018-09-24T06:10:52.608Z,5.0812
2018-09-24T06:11:57.758Z,5.0812
2018-09-24T06:13:03.191Z,5.5806
2018-09-24T06:14:08.071Z,4.9147
2018-09-24T06:15:13.339Z,5.5806
2018-09-24T06:16:19.129Z,4.4153
2018-09-24T06:17:24.614Z,5.3296
2018-09-24T06:18:30.549Z,5.0812
2018-09-24T06:19:35.759Z,4.5818
2018-09-24T06:20:41.188Z,4.6637
2018-09-24T06:21:46.885Z,4.5818
2018-09-24T06:22:52.100Z,4.1643
2018-09-24T06:23:57.526Z,4.4153
2018-09-24T06:25:02.480Z,3.6649
2018-09-24T06:26:07.141Z,4.1643
2018-09-24T06:27:12.656Z,3.6649
2018-09-24T06:28:18.202Z,3.4139
2018-09-24T06:29:23.401Z,3.4139
2018-09-24T06:30:28.574Z,3.1655
2018-09-24T06:31:33.783Z,3.6649
2018-09-24T06:32:39.208Z,3.4139
2018-09-24T06:33:44.694Z,3.1655
2018-09-24T06:34:50.168Z,2.9145
2018-09-24T06:35:55.626Z,2.6661
2018-09-24T06:37:01.018Z,1.7492
2018-09-24T06:38:06.217Z,2.4151
2018-09-24T06:39:11.703Z,2.4151
2018-09-24T06:40:16.407Z,2.1667
2018-09-24T06:41:21.713Z,2.4151
2018-09-24T06:42:41.833Z,1.5827
2018-09-24T06:43:47.265Z,1.9157
2018-09-24T06:44:52.565Z,1.0834
2018-09-24T06:45:58.052Z,1.0834
2018-09-24T06:47:03.235Z,1.3344
2018-09-24T06:48:08.210Z,1.0834
2018-09-24T06:49:13.333Z,0.835
2018-09-24T06:50:18.989Z,0.584
2018-09-24T06:51:24.511Z,1.3344
2018-09-24T06:52:44.560Z,-0.1691
2018-09-24T06:53:49.804Z,-0.1691
2018-09-24T06:54:54.721Z,-0.4175
2018-09-24T06:56:00.177Z,-1.1679
2018-09-24T06:57:05.420Z,-0.4175
2018-09-24T06:58:10.820Z,-0.9195
2018-09-24T06:59:15.448Z,-1.1679
2018-09-24T07:00:20.898Z,-0.9195
2018-09-24T07:01:26.611Z,-1.337
2018-09-24T07:02:32.099Z,-1.1679
2018-09-24T07:03:37.428Z,-0.9195
2018-09-24T07:04:42.632Z,-0.4175
2018-09-24T07:05:47.783Z,-1.1679
2018-09-24T07:06:52.939Z,-0.9195
2018-09-24T07:07:58.110Z,-2.4996
2018-09-24T07:09:03.589Z,-0.4175
2018-09-24T07:10:08.427Z,-0.9195
2018-09-24T07:11:13.687Z,-1.1679
2018-09-24T07:12:19.364Z,-1.5854
2018-09-24T07:13:24.709Z,-2.4996
2018-09-24T07:14:29.675Z,-1.337
2018-09-24T07:15:35.232Z,-1.337
2018-09-24T07:16:40.104Z,-2.0821
2018-09-24T07:17:45.026Z,-2.4996
2018-09-24T07:18:50.446Z,-2.0821
2018-09-24T07:19:55.020Z,-2.9964
2018-09-24T07:20:59.998Z,-2.9964
2018-09-24T07:22:05.530Z,-2.4996
2018-09-24T07:23:10.965Z,-3.7468
2018-09-24T07:24:16.431Z,-2.748
2018-09-24T07:25:21.438Z,-3.9952
2018-09-24T07:26:26.632Z,-3.7468
2018-09-24T07:27:32.332Z,-3.9952
2018-09-24T07:28:37.283Z,-3.7468
2018-09-24T07:29:42.468Z,-3.4984
2018-09-24T07:30:48.239Z,-3.2501
2018-09-24T07:31:53.381Z,-3.9952
2018-09-24T07:32:58.727Z,-3.7468
2018-09-24T07:34:04.013Z,-3.9952
2018-09-24T07:35:08.888Z,-3.4984
2018-09-24T07:36:14.161Z,-3.2501
2018-09-24T07:37:19.627Z,-3.2501
2018-09-24T07:38:25.059Z,-4.4127
2018-09-24T07:39:30.157Z,-4.4972
2018-09-24T07:40:35.011Z,-4.6611
2018-09-24T07:41:40.457Z,-5.4115
2018-09-24T07:42:46.011Z,-4.9147
2018-09-24T07:43:50.873Z,-6.1619
2018-09-24T07:44:56.208Z,-5.6598
2018-09-24T07:46:01.171Z,-5.4115
2018-09-24T07:47:06.085Z,-5.6598
2018-09-24T07:48:11.532Z,-6.1619
2018-09-24T07:49:16.829Z,-6.1619
2018-09-24T07:50:22.267Z,-6.4103
2018-09-24T07:51:42.685Z,-6.907
2018-09-24T07:52:47.252Z,-6.4103
2018-09-24T07:53:52.696Z,-6.4103
2018-09-24T07:54:57.537Z,-6.4103
2018-09-24T07:56:02.428Z,-6.4103
2018-09-24T07:57:07.057Z,-6.4103
2018-09-24T07:58:12.186Z,-7.8213
2018-09-24T07:59:17.655Z,-7.0761
2018-09-24T08:00:22.820Z,-7.5729
2018-09-24T08:01:28.252Z,-7.8213
2018-09-24T08:02:33.402Z,-7.8213
2018-09-24T08:03:39.159Z,-8.3233
2018-09-24T08:04:44.589Z,-7.3245
2018-09-24T08:05:49.496Z,-8.5717
2018-09-24T08:06:54.793Z,-8.3233
2018-09-24T08:08:00.542Z,-8.5717
2018-09-24T08:09:05.734Z,-8.5717
2018-09-24T08:10:11.193Z,-8.5717
2018-09-24T08:11:16.049Z,-9.4859
2018-09-24T08:12:21.232Z,-9.3168
2018-09-24T08:13:26.767Z,-9.0684
2018-09-24T08:14:31.918Z,-9.0684
2018-09-24T08:15:37.542Z,-9.7343
2018-09-24T08:16:43.107Z,-9.3168
2018-09-24T08:17:48.536Z,-9.9827
2018-09-24T08:18:53.993Z,-9.7343
2018-09-24T08:19:59.184Z,-9.9827
2018-09-24T08:21:03.567Z,-9.3168
2018-09-24T08:22:09.170Z,-10.2363
2018-09-24T08:23:14.679Z,-9.7343
2018-09-24T08:24:19.845Z,-9.9827
2018-09-24T08:25:25.190Z,-10.2363
2018-09-24T08:26:30.136Z,-10.2363
2018-09-24T08:27:35.919Z,-9.9827
2018-09-24T08:28:41.143Z,-9.7343
2018-09-24T08:29:46.603Z,-9.7343
2018-09-24T08:30:51.722Z,-10.4847
2018-09-24T08:31:56.948Z,-10.7331
2018-09-24T08:33:02.417Z,-10.7331
2018-09-24T08:34:07.648Z,-10.2363
2018-09-24T08:35:12.839Z,-10.4847
2018-09-24T08:36:17.917Z,-11.2351
2018-09-24T08:37:23.646Z,-10.9868
2018-09-24T08:38:28.245Z,-11.2351
2018-09-24T08:39:33.472Z,-11.066
2018-09-24T08:40:38.356Z,-11.9803
2018-09-24T08:41:43.799Z,-11.066
2018-09-24T08:42:48.604Z,-11.7319
2018-09-24T08:43:53.230Z,-11.066
2018-09-24T08:44:58.689Z,-12.4823
2018-09-24T08:46:04.086Z,-11.066
2018-09-24T08:47:09.255Z,-11.3144
2018-09-24T08:48:14.410Z,-11.3144
2018-09-24T08:49:20.961Z,-11.9803
2018-09-24T08:50:26.408Z,-11.7319
2018-09-24T08:51:32.370Z,-11.9803
2018-09-24T08:52:37.236Z,-11.3144
2018-09-24T08:53:42.414Z,-11.8165
2018-09-24T08:54:48.002Z,-12.4823
2018-09-24T08:55:53.478Z,-11.9803
2018-09-24T08:56:58.862Z,-12.4823
2018-09-24T08:58:03.782Z,-12.0648
2018-09-24T08:59:09.287Z,-12.9791
2018-09-24T09:00:14.202Z,-12.4823
2018-09-24T09:01:19.881Z,-13.7242
2018-09-24T09:02:25.047Z,-13.2274
2018-09-24T09:03:30.331Z,-12.9791
2018-09-24T09:04:35.765Z,-12.9791
2018-09-24T09:05:40.950Z,-12.9791
2018-09-24T09:06:46.373Z,-13.4758
2018-09-24T09:07:51.802Z,-14.1417
2018-09-24T09:08:57.008Z,-12.3132
2018-09-24T09:10:02.068Z,-13.2274
2018-09-24T09:11:07.220Z,-12.3132
2018-09-24T09:12:12.442Z,-13.4758
2018-09-24T09:13:17.775Z,-12.9791
2018-09-24T09:14:23.420Z,-13.4758
2018-09-24T09:15:28.936Z,-13.7242
2018-09-24T09:16:34.513Z,-13.2274
2018-09-24T09:17:39.661Z,-11.8165
2018-09-24T09:18:45.452Z,-13.2274
2018-09-24T09:19:50.657Z,-13.9779
2018-09-24T09:20:55.806Z,-13.4758
2018-09-24T09:22:01.273Z,-12.9791
2018-09-24T09:23:06.734Z,-13.2274
2018-09-24T09:24:12.296Z,-13.7242
2018-09-24T09:25:17.497Z,-13.7242
2018-09-24T09:26:22.987Z,-13.2274
2018-09-24T09:27:28.392Z,-14.1417
2018-09-24T09:28:33.541Z,-13.9779
2018-09-24T09:29:39.080Z,-13.7242
2018-09-24T09:30:44.224Z,-13.4758
2018-09-24T09:31:49.122Z,-13.2274
2018-09-24T09:32:54.573Z,-13.9779
2018-09-24T09:34:00.076Z,-15.0559
2018-09-24T09:35:05.073Z,-14.8921
2018-09-24T09:36:09.924Z,-14.8076
2018-09-24T09:37:15.274Z,-14.8076
2018-09-24T09:38:20.175Z,-14.3901
2018-09-24T09:39:24.787Z,-15.3043
2018-09-24T09:40:30.722Z,-14.8076
2018-09-24T09:41:36.237Z,-14.3901
2018-09-24T09:42:42.014Z,-14.8076
2018-09-24T09:43:47.497Z,-15.558
2018-09-24T09:44:52.927Z,-14.5592
2018-09-24T09:45:58.378Z,-14.8076
2018-09-24T09:47:04.033Z,-14.3108
2018-09-24T09:48:08.655Z,-15.3043
2018-09-24T09:49:14.060Z,-15.558
2018-09-24T09:50:19.278Z,-14.8076
2018-09-24T09:51:24.262Z,-14.8076
2018-09-24T09:52:30.326Z,-16.7206
2018-09-24T09:53:36.257Z,-15.3043
2018-09-24T09:54:41.825Z,-16.3031
2018-09-24T09:55:46.731Z,-14.8076
2018-09-24T09:56:51.889Z,-16.5515
2018-09-24T09:57:57.034Z,-16.0547
2018-09-24T09:59:02.418Z,-15.0559
2018-09-24T10:00:07.000Z,-15.0559
2018-09-24T10:01:12.261Z,-14.8076
2018-09-24T10:02:17.692Z,-14.8076
2018-09-24T10:03:23.137Z,-15.558
2018-09-24T10:04:28.341Z,-14.5592
2018-09-24T10:05:33.800Z,-15.3043
2018-09-24T10:06:39.193Z,-15.0559
2018-09-24T10:07:43.674Z,-15.8064
2018-09-24T10:08:48.936Z,-15.3043
2018-09-24T10:09:54.706Z,-15.3043
2018-09-24T10:10:59.916Z,-15.0559
2018-09-24T10:12:05.105Z,-14.8076
2018-09-24T10:13:10.258Z,-14.5592
2018-09-24T10:14:15.689Z,-15.8064
2018-09-24T10:15:20.632Z,-16.0547
2018-09-24T10:16:26.318Z,-14.8076
2018-09-24T10:17:31.746Z,-15.0559
2018-09-24T10:18:37.172Z,-16.4722
2018-09-24T10:19:42.316Z,-15.558
2018-09-24T10:20:47.748Z,-14.8076
2018-09-24T10:21:53.448Z,-15.3043
2018-09-24T10:22:58.884Z,-15.3043
2018-09-24T10:24:04.069Z,-14.5592
2018-09-24T10:25:09.897Z,-15.558
2018-09-24T10:26:14.821Z,-15.0559
2018-09-24T10:27:20.549Z,-15.558
2018-09-24T10:28:26.248Z,-14.5592
2018-09-24T10:29:31.430Z,-15.558
2018-09-24T10:30:37.106Z,-14.8076
2018-09-24T10:31:42.257Z,-15.8064
2018-09-24T10:32:47.801Z,-15.3043
2018-09-24T10:33:53.425Z,-15.0559
2018-09-24T10:34:58.942Z,-15.3043
2018-09-24T10:36:03.565Z,-15.3043
2018-09-24T10:37:08.932Z,-15.8064
2018-09-24T10:38:13.797Z,-14.8076
2018-09-24T10:39:19.416Z,-15.8064
2018-09-24T10:40:25.197Z,-15.558
2018-09-24T10:41:30.337Z,-15.3043
2018-09-24T10:42:35.755Z,-15.3043
2018-09-24T10:43:40.957Z,-16.0547
2018-09-24T10:44:45.547Z,-15.0559
2018-09-24T10:45:51.388Z,-15.0559
2018-09-24T10:46:56.074Z,-15.558
2018-09-24T10:48:01.294Z,-14.8076
2018-09-24T10:49:06.689Z,-15.3043
2018-09-24T10:50:11.895Z,-16.3031
2018-09-24T10:51:17.401Z,-15.558
2018-09-24T10:52:22.628Z,-15.8064
2018-09-24T10:53:27.778Z,-15.3043
2018-09-24T10:54:33.094Z,-16.4722
2018-09-24T10:55:38.308Z,-16.0547
2018-09-24T10:56:43.811Z,-16.2238
2018-09-24T10:57:49.068Z,-16.0547
2018-09-24T10:58:54.219Z,-16.7206
2018-09-24T10:59:59.384Z,-16.4722
2018-09-24T11:01:04.368Z,-16.3031
2018-09-24T11:02:09.383Z,-16.7206
2018-09-24T11:03:13.981Z,-17.2174
2018-09-24T11:04:19.888Z,-17.2174
2018-09-24T11:05:25.047Z,-16.7206
2018-09-24T11:06:30.250Z,-16.969
2018-09-24T11:07:35.451Z,-16.7206
2018-09-24T11:08:40.607Z,-16.7206
2018-09-24T11:09:45.544Z,-15.558
2018-09-24T11:10:50.802Z,-16.0547
2018-09-24T11:11:56.246Z,-16.7206
2018-09-24T11:13:01.963Z,-17.2174
2018-09-24T11:14:07.181Z,-17.4657
2018-09-24T11:15:12.607Z,-17.2174
2018-09-24T11:16:19.126Z,-17.9625
2018-09-24T11:17:26.302Z,-18.2161
2018-09-24T11:18:32.815Z,-17.7141
2018-09-24T11:19:37.444Z,-16.969
2018-09-24T11:20:42.802Z,-17.9625
2018-09-24T11:21:48.735Z,-16.969
2018-09-24T11:22:54.311Z,-17.2174
2018-09-24T11:23:58.895Z,-17.4657
2018-09-24T11:25:02.930Z,-17.9625
2018-09-24T11:26:08.364Z,-17.7141
2018-09-24T11:27:13.587Z,-17.2174
2018-09-24T11:28:19.312Z,-16.2238
2018-09-24T11:29:24.782Z,-18.4645
2018-09-24T11:30:30.302Z,-17.9625
2018-09-24T11:31:35.462Z,-17.2174
2018-09-24T11:32:40.890Z,-17.4657
2018-09-24T11:33:46.512Z,-17.7141
2018-09-24T11:34:51.940Z,-17.2174
2018-09-24T11:35:57.371Z,-16.969
2018-09-24T11:37:02.935Z,-16.7206
2018-09-24T11:38:08.402Z,-16.7206
2018-09-24T11:39:13.604Z,-16.4722
2018-09-24T11:40:19.457Z,-16.4722
2018-09-24T11:41:24.801Z,-16.4722
2018-09-24T11:42:30.020Z,-16.0547
2018-09-24T11:43:34.886Z,-16.4722
2018-09-24T11:44:40.084Z,-17.4657
2018-09-24T11:45:46.052Z,-17.4657
2018-09-24T11:46:50.936Z,-17.2174
2018-09-24T11:47:56.062Z,-15.8064
2018-09-24T11:49:01.035Z,-16.4722
2018-09-24T11:50:05.907Z,-16.4722
2018-09-24T11:51:11.072Z,-16.4722
2018-09-24T11:52:16.084Z,-16.7206
2018-09-24T11:53:21.323Z,-17.4657
2018-09-24T11:54:41.786Z,-16.969
2018-09-24T11:55:47.214Z,-16.969
2018-09-24T11:56:52.444Z,-16.7206
2018-09-24T11:57:57.805Z,-16.969
2018-09-24T11:59:02.680Z,-16.7206
2018-09-24T12:00:07.846Z,-16.4722
2018-09-24T12:01:13.012Z,-16.7206
2018-09-24T12:02:18.048Z,-16.969
2018-09-24T12:03:23.344Z,-16.2238
2018-09-24T12:04:28.892Z,-16.0547
2018-09-24T12:05:33.792Z,-16.2238
2018-09-24T12:06:39.603Z,-16.969
2018-09-24T12:07:45.033Z,-16.3031
2018-09-24T12:08:50.646Z,-15.8064
2018-09-24T12:09:55.867Z,-16.0547
2018-09-24T12:11:01.312Z,-16.0547
2018-09-24T12:12:06.546Z,-15.8064
2018-09-24T12:13:12.229Z,-15.8064
2018-09-24T12:14:17.706Z,-15.3043
2018-09-24T12:15:23.134Z,-15.0559
2018-09-24T12:16:29.506Z,-15.3043
2018-09-24T12:17:34.796Z,-15.3043
2018-09-24T12:18:40.372Z,-15.0559
2018-09-24T12:19:45.237Z,-15.3043
2018-09-24T12:20:50.478Z,-14.8076
2018-09-24T12:21:56.066Z,-14.8076
2018-09-24T12:23:01.258Z,-14.5592
2018-09-24T12:24:06.261Z,-13.9779
2018-09-24T12:25:12.134Z,-15.8064
2018-09-24T12:26:17.273Z,-15.3043
2018-09-24T12:27:22.767Z,-15.0559
2018-09-24T12:28:28.702Z,-15.3043
2018-09-24T12:29:33.853Z,-16.0547
2018-09-24T12:30:39.691Z,-15.0559
2018-09-24T12:31:44.899Z,-15.8064
2018-09-24T12:32:50.050Z,-15.558
2018-09-24T12:33:54.931Z,-15.3043
2018-09-24T12:35:00.411Z,-15.3043
2018-09-24T12:36:05.587Z,-15.558
2018-09-24T12:37:11.636Z,-16.0547
2018-09-24T12:38:16.810Z,-15.558
2018-09-24T12:39:22.456Z,-14.8076
2018-09-24T12:40:27.911Z,-15.558
2018-09-24T12:41:32.770Z,-15.3043
2018-09-24T12:42:38.551Z,-15.3043
2018-09-24T12:43:43.702Z,-16.3031
2018-09-24T12:44:48.675Z,-16.0547
2018-09-24T12:45:53.815Z,-15.3043
2018-09-24T12:46:59.014Z,-15.3043
2018-09-24T12:48:03.526Z,-15.558
2018-09-24T12:49:09.071Z,-15.3043
2018-09-24T12:50:14.037Z,-15.558
2018-09-24T12:51:19.182Z,-16.3031
2018-09-24T12:52:24.327Z,-15.3043
2018-09-24T12:53:29.993Z,-14.3108
2018-09-24T12:54:35.392Z,-16.3031
2018-09-24T12:55:40.316Z,-15.0559
2018-09-24T12:56:45.469Z,-15.3043
2018-09-24T12:57:50.731Z,-15.8064
2018-09-24T12:58:55.894Z,-15.558
2018-09-24T13:00:01.347Z,-15.3043
2018-09-24T13:01:06.239Z,-15.558
2018-09-24T13:02:11.394Z,-15.558
2018-09-24T13:03:16.566Z,-15.558
2018-09-24T13:04:22.395Z,-15.0559
2018-09-24T13:05:27.598Z,-15.0559
2018-09-24T13:06:33.136Z,-15.558
2018-09-24T13:07:38.045Z,-14.3108
2018-09-24T13:08:43.497Z,-15.558
2018-09-24T13:09:49.288Z,-15.558
2018-09-24T13:10:54.448Z,-15.8064
2018-09-24T13:11:59.880Z,-15.8064
2018-09-24T13:13:04.984Z,-15.0559
2018-09-24T13:14:09.647Z,-14.8076
2018-09-24T13:15:14.288Z,-14.8076
2018-09-24T13:16:19.791Z,-15.558
2018-09-24T13:17:25.305Z,-15.0559
2018-09-24T13:18:30.866Z,-14.8076
2018-09-24T13:19:36.299Z,-15.0559
2018-09-24T13:20:41.761Z,-14.5592
2018-09-24T13:21:46.874Z,-14.5592
2018-09-24T13:22:52.013Z,-14.0571
2018-09-24T13:23:57.503Z,-15.558
2018-09-24T13:25:02.463Z,-15.3043
2018-09-24T13:26:07.328Z,-14.8076
2018-09-24T13:27:12.768Z,-15.0559
2018-09-24T13:28:19.128Z,-16.4722
2018-09-24T13:29:24.294Z,-15.8064
2018-09-24T13:30:29.753Z,-16.7206
2018-09-24T13:31:35.265Z,-17.2174
2018-09-24T13:32:40.279Z,-17.4657
2018-09-24T13:33:46.011Z,-18.2161
2018-09-24T13:34:51.479Z,-18.7129
2018-09-24T13:35:56.851Z,-19.3788
2018-09-24T13:37:02.683Z,-18.9666
2018-09-24T13:38:08.161Z,-19.6271
2018-09-24T13:39:13.023Z,-19.2149
2018-09-24T13:40:18.417Z,-19.2149
2018-09-24T13:41:23.460Z,-18.9666
2018-09-24T13:42:28.666Z,-18.7129
2018-09-24T13:43:34.399Z,-19.2149
2018-09-24T13:44:40.073Z,-19.9601
2018-09-24T13:45:45.775Z,-19.9601
2018-09-24T13:46:50.646Z,-19.9601
2018-09-24T13:47:55.839Z,-20.9589
2018-09-24T13:49:00.958Z,-19.9601
2018-09-24T13:50:05.623Z,-20.2085
2018-09-24T13:51:11.086Z,-20.7052
2018-09-24T13:52:16.480Z,-20.7052
2018-09-24T13:53:21.953Z,-20.9589
2018-09-24T13:54:41.834Z,-20.0446
2018-09-24T13:55:47.370Z,-20.5414
2018-09-24T13:56:52.540Z,-21.2865
2018-09-24T13:57:58.054Z,-20.5414
2018-09-24T13:59:03.003Z,-20.7898
2018-09-24T14:00:08.177Z,-20.0446
2018-09-24T14:01:13.936Z,-22.2853
2018-09-24T14:02:18.537Z,-20.3776
2018-09-24T14:03:23.959Z,-20.1292
2018-09-24T14:04:28.871Z,-21.0381
2018-09-24T14:05:33.737Z,-20.8743
2018-09-24T14:06:39.548Z,-21.6195
2018-09-24T14:07:44.410Z,-20.6259
2018-09-24T14:08:49.596Z,-20.3776
2018-09-24T14:09:54.565Z,-20.3776
2018-09-24T14:10:59.309Z,-20.6259
2018-09-24T14:12:04.878Z,-20.8743
2018-09-24T14:13:10.811Z,-20.2085
2018-09-24T14:14:15.985Z,-20.7052
2018-09-24T14:15:21.467Z,-20.4568
2018-09-24T14:16:27.242Z,-20.4568
2018-09-24T14:17:32.905Z,-19.9601
2018-09-24T14:18:38.936Z,-20.9589
2018-09-24T14:19:44.028Z,-20.7052
2018-09-24T14:20:49.330Z,-19.2149
2018-09-24T14:21:55.048Z,-20.2085
2018-09-24T14:23:00.433Z,-19.9601
2018-09-24T14:24:05.961Z,-19.4633
2018-09-24T14:25:11.690Z,-19.0458
2018-09-24T14:26:16.987Z,-19.7117
2018-09-24T14:27:22.544Z,-19.9601
2018-09-24T14:28:42.407Z,-19.2942
2018-09-24T14:29:47.290Z,-19.9601
2018-09-24T14:30:52.552Z,-19.7117
2018-09-24T14:31:57.737Z,-19.2942
2018-09-24T14:33:02.080Z,-20.9589
2018-09-24T14:34:07.893Z,-19.7117
2018-09-24T14:35:13.442Z,-19.5426
2018-09-24T14:36:18.620Z,-19.7117
2018-09-24T14:37:23.735Z,-20.7052
2018-09-24T14:38:29.175Z,-20.9589
2018-09-24T14:39:34.743Z,-20.4568
2018-09-24T14:40:39.895Z,-21.2073
2018-09-24T14:41:45.283Z,-21.2073
2018-09-24T14:42:50.354Z,-20.4568
2018-09-24T14:43:55.813Z,-20.7052
2018-09-24T14:45:01.013Z,-21.8731
2018-09-24T14:46:06.257Z,-20.4568
2018-09-24T14:47:11.124Z,-20.4568
2018-09-24T14:48:16.469Z,-20.9589
2018-09-24T14:49:21.930Z,-20.2085
2018-09-24T14:50:27.564Z,-21.4556
2018-09-24T14:51:33.111Z,-20.4568
2018-09-24T14:52:38.341Z,-20.4568
2018-09-24T14:53:43.491Z,-19.9601
2018-09-24T14:54:48.890Z,-21.4556
2018-09-24T14:55:54.396Z,-21.704
2018-09-24T14:56:59.853Z,-20.0446
2018-09-24T14:58:05.633Z,-20.9589
2018-09-24T14:59:10.575Z,-20.9589
2018-09-24T15:00:15.715Z,-20.293
2018-09-24T15:01:20.685Z,-20.293
2018-09-24T15:02:25.557Z,-21.2073
2018-09-24T15:03:31.442Z,-20.5414
2018-09-24T15:04:36.354Z,-20.5414
2018-09-24T15:05:41.212Z,-20.9589
2018-09-24T15:06:46.928Z,-21.4556
2018-09-24T15:07:52.367Z,-21.2073
2018-09-24T15:08:57.511Z,-20.7898
2018-09-24T15:10:02.724Z,-21.2073
2018-09-24T15:11:07.549Z,-21.0381
2018-09-24T15:12:12.701Z,-20.7898
2018-09-24T15:13:18.133Z,-21.2865
2018-09-24T15:14:23.436Z,-21.2865
2018-09-24T15:15:28.995Z,-21.7886
2018-09-24T15:16:34.145Z,-22.2061
2018-09-24T15:17:39.364Z,-22.0369
2018-09-24T15:18:44.853Z,-21.2865
2018-09-24T15:19:50.006Z,-21.7886
2018-09-24T15:20:55.296Z,-20.5414
2018-09-24T15:22:00.516Z,-22.0369
2018-09-24T15:23:06.046Z,-22.5337
2018-09-24T15:24:11.497Z,-20.7898
2018-09-24T15:25:16.988Z,-21.0381
2018-09-24T15:26:22.474Z,-22.0369
2018-09-24T15:27:27.854Z,-21.7886
2018-09-24T15:28:33.015Z,-21.5349
2018-09-24T15:29:38.448Z,-21.2865
2018-09-24T15:30:43.599Z,-21.5349
2018-09-24T15:31:48.752Z,-21.0381
2018-09-24T15:32:53.171Z,-21.5349
2018-09-24T15:33:58.111Z,-22.2853
2018-09-24T15:35:03.013Z,-22.2853
2018-09-24T15:36:08.161Z,-22.2853
2018-09-24T15:37:13.618Z,-22.7821
2018-09-24T15:38:19.062Z,-23.0357
2018-09-24T15:39:24.493Z,-22.7821
2018-09-24T15:40:29.859Z,-22.5337
2018-09-24T15:41:35.347Z,-22.2853
2018-09-24T15:42:40.827Z,-23.0357
2018-09-24T15:43:46.310Z,-22.5337
2018-09-24T15:44:51.872Z,-22.7821
2018-09-24T15:45:57.201Z,-22.2853
2018-09-24T15:47:02.671Z,-21.7886
2018-09-24T15:48:07.817Z,-22.7821
2018-09-24T15:49:13.770Z,-22.9512
2018-09-24T15:50:19.201Z,-23.0357
2018-09-24T15:51:23.922Z,-23.1996
2018-09-24T15:52:29.392Z,-24.1138
2018-09-24T15:53:34.821Z,-23.8654
2018-09-24T15:54:39.956Z,-22.9512
2018-09-24T15:55:45.401Z,-24.1138
2018-09-24T15:56:50.436Z,-24.1138
2018-09-24T15:57:55.954Z,-23.9447
2018-09-24T15:59:00.839Z,-24.1138
2018-09-24T16:00:05.793Z,-24.1138
2018-09-24T16:01:11.226Z,-24.1931
2018-09-24T16:02:16.374Z,-23.9447
2018-09-24T16:03:21.527Z,-23.5325
2018-09-24T16:04:42.171Z,-24.6951
2018-09-24T16:05:47.431Z,-25.9423
2018-09-24T16:06:53.137Z,-26.1907
2018-09-24T16:07:58.292Z,-25.4402
2018-09-24T16:09:03.403Z,-25.6886
2018-09-24T16:10:09.042Z,-26.1907
2018-09-24T16:11:14.194Z,-25.028
2018-09-24T16:12:19.055Z,-25.6886
2018-09-24T16:13:24.539Z,-24.0293
2018-09-24T16:14:29.429Z,-24.7797
2018-09-24T16:15:35.117Z,-25.5248
2018-09-24T16:16:39.993Z,-24.2829
2018-09-24T16:17:45.146Z,-25.028
2018-09-24T16:18:50.438Z,-24.0293
2018-09-24T16:19:55.686Z,-24.1138
2018-09-24T16:21:00.686Z,-23.9447
2018-09-24T16:22:06.653Z,-24.6951
2018-09-24T16:23:12.166Z,-24.2829
2018-09-24T16:24:17.319Z,-24.9435
2018-09-24T16:25:23.220Z,-24.9435
2018-09-24T16:26:28.376Z,-24.4467
2018-09-24T16:27:34.479Z,-24.6951
2018-09-24T16:28:39.949Z,-24.9435
2018-09-24T16:29:45.382Z,-25.361
2018-09-24T16:30:51.098Z,-25.361
2018-09-24T16:31:56.664Z,-25.361
2018-09-24T16:33:01.917Z,-25.361
2018-09-24T16:34:07.033Z,-24.8642
2018-09-24T16:35:12.192Z,-24.8642
2018-09-24T16:36:16.767Z,-25.361
2018-09-24T16:37:22.257Z,-25.1126
2018-09-24T16:38:27.738Z,-25.1126
2018-09-24T16:39:33.239Z,-25.8577
2018-09-24T16:40:38.386Z,-24.8642
2018-09-24T16:41:43.577Z,-25.361
2018-09-24T16:42:48.979Z,-25.6094
2018-09-24T16:43:54.416Z,-26.1061
2018-09-24T16:44:59.586Z,-26.5236
2018-09-24T16:46:04.702Z,-26.0216
2018-09-24T16:47:09.204Z,-27.0204
2018-09-24T16:48:14.357Z,-27.7655
2018-09-24T16:49:19.606Z,-27.7655
2018-09-24T16:50:24.819Z,-28.4314
2018-09-24T16:51:30.762Z,-27.6862
2018-09-24T16:52:35.985Z,-28.183
2018-09-24T16:53:41.450Z,-28.4314
2018-09-24T16:54:46.786Z,-29.594
2018-09-24T16:55:51.968Z,-29.3456
2018-09-24T16:56:57.177Z,-31.005
2018-09-24T16:58:03.061Z,-31.9192
2018-09-24T16:59:08.155Z,-31.4172
2018-09-24T17:00:13.110Z,-32.416
2018-09-24T17:01:19.182Z,-32.9127
2018-09-24T17:02:24.384Z,-32.6643
2018-09-24T17:03:30.215Z,-31.9192
2018-09-24T17:04:35.463Z,-32.8335
2018-09-24T17:05:40.620Z,-33.3302
2018-09-24T17:06:46.101Z,-32.5798
2018-09-24T17:07:50.965Z,-33.0818
2018-09-24T17:08:55.569Z,-33.5786
2018-09-24T17:10:01.324Z,-34.3237
2018-09-24T17:11:06.570Z,-33.3302
2018-09-24T17:12:12.397Z,-33.5786
2018-09-24T17:13:17.802Z,-33.0818
2018-09-24T17:14:22.994Z,-32.5798
2018-09-24T17:15:28.739Z,-33.9908
2018-09-24T17:16:34.258Z,-32.5005
2018-09-24T17:17:39.309Z,-32.3314
2018-09-24T17:18:44.309Z,-32.7489
2018-09-24T17:19:49.506Z,-33.2457
2018-09-24T17:20:54.973Z,-32.7489
2018-09-24T17:22:00.675Z,-33.2457
2018-09-24T17:23:05.311Z,-33.2457
2018-09-24T17:24:10.454Z,-33.494
2018-09-24T17:25:15.378Z,-32.7489
2018-09-24T17:26:20.532Z,-32.7489
2018-09-24T17:27:40.638Z,-33.494
2018-09-24T17:28:45.906Z,-33.2457
2018-09-24T17:29:51.370Z,-33.6579
2018-09-24T17:30:56.763Z,-34.1546
2018-09-24T17:32:02.227Z,-33.6579
2018-09-24T17:33:07.187Z,-33.4095
2018-09-24T17:34:12.868Z,-34.6567
2018-09-24T17:35:17.789Z,-33.9062
2018-09-24T17:36:23.489Z,-33.1611
2018-09-24T17:37:29.261Z,-33.1611
2018-09-24T17:38:34.177Z,-33.4095
2018-09-24T17:39:39.569Z,-33.6579
2018-09-24T17:40:45.064Z,-33.4095
2018-09-24T17:41:50.361Z,-34.0753
2018-09-24T17:42:55.762Z,-33.6579
2018-09-24T17:44:00.411Z,-34.8205
2018-09-24T17:45:05.004Z,-34.3237
2018-09-24T17:46:11.153Z,-35.0689
2018-09-24T17:47:16.209Z,-35.0689
2018-09-24T17:48:21.446Z,-35.0689
2018-09-24T17:49:26.837Z,-35.5656
2018-09-24T17:50:31.999Z,-36.7282
2018-09-24T17:51:37.917Z,-35.9831
2018-09-24T17:52:42.520Z,-35.9831
2018-09-24T17:53:47.169Z,-36.7282
2018-09-24T17:54:52.852Z,-36.4799
2018-09-24T17:55:58.282Z,-34.4875
2018-09-24T17:57:03.741Z,-34.4875
2018-09-24T17:58:08.611Z,-33.827
2018-09-24T17:59:14.047Z,-34.4875
2018-09-24T18:00:19.286Z,-34.7412
2018-09-24T18:01:24.779Z,-34.4875
2018-09-24T18:02:29.953Z,-34.7412
2018-09-24T18:03:35.343Z,-34.7412
2018-09-24T18:04:40.266Z,-35.4863
2018-09-24T18:05:45.781Z,-34.7412
2018-09-24T18:06:51.248Z,-34.7412
2018-09-24T18:07:56.119Z,-35.4863
2018-09-24T18:09:01.035Z,-35.7347
2018-09-24T18:10:06.608Z,-35.4863
2018-09-24T18:11:11.773Z,-35.4018
2018-09-24T18:12:16.961Z,-36.1469
2018-09-24T18:13:22.732Z,-36.1469
2018-09-24T18:14:28.163Z,-36.4006
2018-09-24T18:15:33.721Z,-36.649
2018-09-24T18:16:38.686Z,-37.1457
2018-09-24T18:17:43.899Z,-36.1469
2018-09-24T18:18:49.571Z,-37.1457
2018-09-24T18:19:54.777Z,-36.8973
2018-09-24T18:20:59.938Z,-37.1457
2018-09-24T18:22:05.671Z,-37.3095
2018-09-24T18:23:10.573Z,-38.0547
2018-09-24T18:24:15.451Z,-37.1457
2018-09-24T18:25:21.280Z,-38.3031
2018-09-24T18:26:26.311Z,-38.0547
2018-09-24T18:27:31.765Z,-38.3031
2018-09-24T18:28:37.205Z,-39.0535
2018-09-24T18:29:42.684Z,-38.3031
2018-09-24T18:30:48.121Z,-39.0535
2018-09-24T18:31:53.218Z,-38.8051
2018-09-24T18:32:58.211Z,-39.4657
2018-09-24T18:34:03.994Z,-39.4657
2018-09-24T18:35:09.446Z,-39.3019
2018-09-24T18:36:14.633Z,-39.0535
2018-09-24T18:37:21.061Z,-39.2173
2018-09-24T18:38:26.901Z,-38.9689
2018-09-24T18:39:32.446Z,-39.2173
2018-09-24T18:40:37.309Z,-39.2173
2018-09-24T18:41:42.811Z,-39.4657
2018-09-24T18:42:48.303Z,-39.7141
2018-09-24T18:43:53.160Z,-40.2108
2018-09-24T18:44:58.105Z,-39.7141
2018-09-24T18:46:02.736Z,-38.9689
2018-09-24T18:47:07.349Z,-39.9624
2018-09-24T18:48:12.022Z,-39.7141
2018-09-24T18:49:17.615Z,-39.9624
2018-09-24T18:50:23.046Z,-39.7141
2018-09-24T18:51:28.793Z,-39.7141
2018-09-24T18:52:33.669Z,-40.4592
2018-09-24T18:53:39.103Z,-39.9624
2018-09-24T18:54:45.317Z,-40.2108